Naples, FL (34120)

2:50 AM EDT on August 26, 2016 (GMT -0400)
Rock Rd | | Change Station

Elev 12 ft 26.27 °N, 81.63 °W | Updated 365 days ago

Mostly Cloudy
Mostly Cloudy
76 °F
Feels Like 76 °F
N
4
Wind Variable Wind from NNE
Gusts mph

Today
High -- | Low -- °F
--% Chance of Precip.
Yesterday
High -- | Low -- °F
Precip. -- in
Pressure 29.97 in
Visibility 10.0 miles
Clouds Few 1400 ft
Dew Point 74 °F
Humidity 93%
Rainfall in
Snow Depth Not available.
7:03 AM 7:51 PM
Last Quarter, 37% visible
METAR KAPF 260553Z AUTO 01005KT 10SM FEW014 27/25 A2997 RMK AO2 SLP148 T02670250 10272 20261 50005
Pressure 29.97 in
Visibility 10.0 miles
Clouds Few 1400 ft
Dew Point 74 °F
Humidity 93%
Rainfall in
Snow Depth Not available.
7:03 AM 7:51 PM
Last Quarter, 37% visible
METAR KAPF 260553Z AUTO 01005KT 10SM FEW014 27/25 A2997 RMK AO2 SLP148 T02670250 10272 20261 50005

10-Day Weather Forecast

Almanac

Astronomy

Aug. 26, 2016 Rise Set
Actual Time
Civil Twilight
Nautical Twilight
Astronomical Twilight
Moon
Length of Visible Light
Length of Day
Tomorrow will be .
, % of the Moon is Illuminated

Today's Extremes

State Highs State Lows

Community

WunderPhotos

Upload Photos

1,935,063 photos uploaded!

WunderBlog® & News

Nearby

Air Quality

  Air Quality AQ Index Pollutant
Not available.

Snow Depth

Station Depth Elevation

Earthquake Activity

City Distance Mag. Time & Date
Minimum magnitude displayed is 2.5.

Coastal Water Temperatures

Place Temperature

Stations

Nearby Weather Stations

Station Location Temp. Windchill Dew Point Humidity Wind Precip. Elev Updated Type
                   

Watches & Warnings

There are currently no watches in effect.